• Join FlightAware (Why Join?)
  • Login
  • US Flag 
03:52PM EDT


 

Airport Tracker/Info


-or-


 

Live Flight TrackerFlight Track Log ✈ SWA182 ✈ 05-Jun-2013 ✈ KLAS - KSLC

Flight Track Log - Related Links

Times and Time Zones

All times are in EDT time to prevent confusion due to time zone crossing. See the SWA182 flight status page for this flight to view local times or setup timezone preferences in your user account.

Time Position Orientation Groundspeed Altitude Reporting Facility
EDT Latitude Longitude Course Direction KTS MPH feet Rate Location/Type
01:09AM 36.0767 -115.1706 269° West 133 153 3,500  Level Los Angeles Center
01:09AM 36.0764 -115.2000 269° West 163 188 4,100 1,740 Climbing Los Angeles Center
01:10AM 36.0928 -115.2850 283° West 236 272 6,400 2,040 Climbing Los Angeles Center
01:11AM 36.1156 -115.2917 347° North 236 272 7,300 3,000 Climbing Los Angeles Center
01:12AM 36.1728 -115.2544 28° Northeast 258 297 10,800 3,120 Climbing Los Angeles Center
01:13AM 36.1972 -115.1567 73° East 298 343 13,700 2,940 Climbing Los Angeles Center
01:14AM 36.1969 -115.0436 90° East 326 375 16,800 3,360 Climbing Los Angeles Center
01:15AM 36.1992 -114.8675 89° East 368 423 21,300 3,240 Climbing Los Angeles Center
01:16AM 36.2369 -114.7467 69° East 398 458 24,100 2,520 Climbing Los Angeles Center
01:17AM 36.3269 -114.6606 38° Northeast 408 470 26,500 2,340 Climbing Los Angeles Center
01:18AM 36.4217 -114.5708 37° Northeast 423 487 28,900 2,400 Climbing Los Angeles Center
01:19AM 36.5183 -114.4792 37° Northeast 435 501 31,500 2,280 Climbing Los Angeles Center
01:20AM 36.6178 -114.3967 34° Northeast 430 495 33,600 1,800 Climbing Los Angeles Center
01:21AM 36.7225 -114.3178 31° Northeast 437 503 35,200 1,560 Climbing Los Angeles Center
01:22AM 36.8283 -114.2344 32° Northeast 448 516 36,800 840 Climbing Los Angeles Center
01:23AM 36.9339 -114.1514 32° Northeast 449 517 37,000 60 Climbing Los Angeles Center
01:24AM 37.0606 -114.0539 32° Northeast 446 513 37,000  Level Los Angeles Center
01:25AM 37.1656 -113.9719 32° Northeast 445 512 37,000  Level Los Angeles Center
01:26AM 37.2692 -113.8908 32° Northeast 442 509 37,000  Level Los Angeles Center
01:27AM 37.3669 -113.8133 32° Northeast 439 505 37,000  Level Los Angeles Center
01:28AM 37.4278 -113.7650 32° Northeast 436 502 37,000  Level Salt Lake Center
01:29AM 37.5311 -113.6825 32° Northeast 437 503 37,000  Level Salt Lake Center
01:30AM 37.6339 -113.6006 32° Northeast 436 502 37,000  Level Salt Lake Center
01:31AM 37.7367 -113.5181 32° Northeast 435 501 37,000  Level Salt Lake Center
01:32AM 37.8408 -113.4356 32° Northeast 437 503 37,000  Level Salt Lake Center
01:33AM 37.9447 -113.3528 32° Northeast 438 504 37,000  Level Salt Lake Center
01:34AM 38.0483 -113.2686 33° Northeast 439 505 37,000  Level Salt Lake Center
01:35AM 38.1514 -113.1858 32° Northeast 437 503 37,000  Level Salt Lake Center
01:36AM 38.2750 -113.0842 33° Northeast 438 504 37,000  Level Salt Lake Center
01:37AM 38.3783 -113.0028 32° Northeast 436 502 37,000  Level Salt Lake Center
01:38AM 38.4906 -112.9453 22° Northeast 433 498 37,000  Level Salt Lake Center
01:39AM 38.6017 -112.8869 22° Northeast 432 497 37,000 -360 Level Salt Lake Center
01:40AM 38.7125 -112.8264 23° Northeast 432 497 36,300 -900 Descending Salt Lake Center
01:41AM 38.8228 -112.7656 23° Northeast 432 497 35,300 -960 Descending Salt Lake Center
01:42AM 38.9344 -112.7072 22° Northeast 432 497 34,400 -960 Descending Salt Lake Center
01:43AM 39.0447 -112.6447 24° Northeast 433 498 33,400 -1,320 Descending Salt Lake Center
01:44AM 39.1547 -112.5856 23° Northeast 428 493 31,800 -1,920 Descending Salt Lake Center
01:45AM 39.2661 -112.5269 22° Northeast 412 474 29,600 -2,100 Descending Salt Lake Center
01:46AM 39.3672 -112.4706 23° Northeast 401 461 27,600 -2,040 Descending Salt Lake Center
01:47AM 39.4644 -112.4150 24° Northeast 381 438 25,500 -2,040 Descending Salt Lake Center
01:48AM 39.5583 -112.3600 24° Northeast 372 428 23,500 -1,980 Descending Salt Lake Center
01:49AM 39.6508 -112.3067 24° Northeast 363 418 21,600 -1,980 Descending Salt Lake Center
01:50AM 39.7403 -112.2550 24° Northeast 354 407 19,600 -1,920 Descending Salt Lake Center
01:51AM 39.8283 -112.2039 24° Northeast 347 399 17,800 -1,920 Descending Salt Lake Center
01:52AM 39.8742 -112.1858 17° North 347 399 16,800 -1,740 Descending Salt Lake Center
01:52AM 39.9186 -112.1600 24° Northeast 350 403 16,100 -1,380 Descending Salt Lake Center
01:53AM 39.9972 -112.1114 25° Northeast 351 404 14,900 -1,140 Descending Salt Lake Center
01:54AM 40.1011 -112.0708 17° North 341 392 13,900 -900 Descending Salt Lake Center
01:55AM 40.1911 -112.0353 17° North 338 389 13,100 -540 Descending Salt Lake Center
01:56AM 40.2794 -112.0028 16° North 332 382 12,900 -1,320 Descending Salt Lake Center
01:57AM 40.3656 -111.9708 16° North 330 380 10,500 -1,560 Descending Salt Lake Center
01:58AM 40.4481 -111.9625 North 272 313 9,800 -660 Descending Salt Lake Center
01:59AM 40.5117 -111.9692 355° North 222 255 9,200 -900 Descending Salt Lake Center
02:00AM 40.5708 -111.9744 356° North 210 242 8,100 -1,140 Descending Salt Lake Center
02:01AM 40.6261 -111.9811 355° North 198 228 7,000 -1,020 Descending Salt Lake Center
02:02AM 40.6733 -111.9833 358° North 198 228 6,100 -900 Descending Salt Lake Center
02:03AM 40.7228 -111.9908 353° North 154 177 5,200 -780 Descending Salt Lake Center
02:04AM 40.7583 -111.9928 358° North 140 161 4,600 -540 Descending Salt Lake Center
02:05AM 40.7908 -111.9967 355° North 120 138 4,200 -420 Descending Salt Lake Center
02:07AM 40.7884 -111.9778 90° East  Level Estimated